sensor_id;sensor_type;location;lat;lon;timestamp;temperature;humidity
54126;DHT22;40360;52.992;6.796;2023-06-22T00:00:46;17.60;99.90
54126;DHT22;40360;52.992;6.796;2023-06-22T00:03:12;17.60;99.90
54126;DHT22;40360;52.992;6.796;2023-06-22T00:05:38;17.70;99.90
54126;DHT22;40360;52.992;6.796;2023-06-22T00:08:04;17.70;99.90
54126;DHT22;40360;52.992;6.796;2023-06-22T00:10:32;17.60;99.90
54126;DHT22;40360;52.992;6.796;2023-06-22T00:12:58;17.60;99.90
54126;DHT22;40360;52.992;6.796;2023-06-22T00:15:24;17.60;99.90
54126;DHT22;40360;52.992;6.796;2023-06-22T00:17:50;17.60;99.90
54126;DHT22;40360;52.992;6.796;2023-06-22T00:20:16;17.60;99.90
54126;DHT22;40360;52.992;6.796;2023-06-22T00:22:44;17.60;99.90
54126;DHT22;40360;52.992;6.796;2023-06-22T00:25:10;17.60;99.90
54126;DHT22;40360;52.992;6.796;2023-06-22T00:27:36;17.50;99.90
54126;DHT22;40360;52.992;6.796;2023-06-22T00:30:02;17.50;99.90
54126;DHT22;40360;52.992;6.796;2023-06-22T00:32:28;17.40;99.90
54126;DHT22;40360;52.992;6.796;2023-06-22T00:34:54;17.40;99.90
54126;DHT22;40360;52.992;6.796;2023-06-22T00:37:19;17.30;99.90
54126;DHT22;40360;52.992;6.796;2023-06-22T00:39:48;17.30;99.90
54126;DHT22;40360;52.992;6.796;2023-06-22T00:42:14;17.30;99.90
54126;DHT22;40360;52.992;6.796;2023-06-22T00:44:39;17.30;99.90
54126;DHT22;40360;52.992;6.796;2023-06-22T00:47:06;17.30;99.90
54126;DHT22;40360;52.992;6.796;2023-06-22T00:49:32;17.20;99.90
54126;DHT22;40360;52.992;6.796;2023-06-22T00:51:58;17.20;99.90
54126;DHT22;40360;52.992;6.796;2023-06-22T00:54:24;17.20;99.90
54126;DHT22;40360;52.992;6.796;2023-06-22T00:56:52;17.20;99.90
54126;DHT22;40360;52.992;6.796;2023-06-22T00:59:20;17.20;99.90
54126;DHT22;40360;52.992;6.796;2023-06-22T01:01:46;17.20;99.90
54126;DHT22;40360;52.992;6.796;2023-06-22T01:04:12;17.20;99.90
54126;DHT22;40360;52.992;6.796;2023-06-22T01:09:33;17.10;99.90
54126;DHT22;40360;52.992;6.796;2023-06-22T01:12:03;17.20;99.90
54126;DHT22;40360;52.992;6.796;2023-06-22T01:14:42;17.20;99.90
54126;DHT22;40360;52.992;6.796;2023-06-22T01:17:10;17.20;99.90
54126;DHT22;40360;52.992;6.796;2023-06-22T01:19:50;17.10;99.90
54126;DHT22;40360;52.992;6.796;2023-06-22T01:22:25;17.00;99.90
54126;DHT22;40360;52.992;6.796;2023-06-22T01:24:59;17.00;99.90
54126;DHT22;40360;52.992;6.796;2023-06-22T01:30:19;16.80;99.90
54126;DHT22;40360;52.992;6.796;2023-06-22T01:32:47;16.80;99.90
54126;DHT22;40360;52.992;6.796;2023-06-22T01:35:14;16.80;99.90
54126;DHT22;40360;52.992;6.796;2023-06-22T01:37:40;16.80;99.90
54126;DHT22;40360;52.992;6.796;2023-06-22T01:40:07;16.70;99.90
54126;DHT22;40360;52.992;6.796;2023-06-22T01:42:34;16.60;99.90
54126;DHT22;40360;52.992;6.796;2023-06-22T01:45:00;16.60;99.90
54126;DHT22;40360;52.992;6.796;2023-06-22T01:47:27;16.50;99.90
54126;DHT22;40360;52.992;6.796;2023-06-22T01:49:53;16.40;99.90
54126;DHT22;40360;52.992;6.796;2023-06-22T01:52:19;16.30;99.90
54126;DHT22;40360;52.992;6.796;2023-06-22T01:54:47;16.20;99.90
54126;DHT22;40360;52.992;6.796;2023-06-22T01:57:13;16.10;99.90
54126;DHT22;40360;52.992;6.796;2023-06-22T01:59:59;16.10;99.90
54126;DHT22;40360;52.992;6.796;2023-06-22T02:02:29;16.10;99.90
54126;DHT22;40360;52.992;6.796;2023-06-22T02:05:10;16.10;99.90
54126;DHT22;40360;52.992;6.796;2023-06-22T02:10:32;16.10;99.90
54126;DHT22;40360;52.992;6.796;2023-06-22T02:13:01;16.10;99.90
54126;DHT22;40360;52.992;6.796;2023-06-22T02:15:28;16.10;99.90
54126;DHT22;40360;52.992;6.796;2023-06-22T02:17:54;16.00;99.90
54126;DHT22;40360;52.992;6.796;2023-06-22T02:20:20;16.00;99.90
54126;DHT22;40360;52.992;6.796;2023-06-22T02:22:45;16.00;99.90
54126;DHT22;40360;52.992;6.796;2023-06-22T02:25:11;16.00;99.90
54126;DHT22;40360;52.992;6.796;2023-06-22T02:27:37;16.00;99.90
54126;DHT22;40360;52.992;6.796;2023-06-22T02:30:09;16.00;99.90
54126;DHT22;40360;52.992;6.796;2023-06-22T02:32:36;16.00;99.90
54126;DHT22;40360;52.992;6.796;2023-06-22T02:35:02;15.90;99.90
54126;DHT22;40360;52.992;6.796;2023-06-22T02:37:32;16.00;99.90
54126;DHT22;40360;52.992;6.796;2023-06-22T02:39:58;15.90;99.90
54126;DHT22;40360;52.992;6.796;2023-06-22T02:42:23;16.00;99.90
54126;DHT22;40360;52.992;6.796;2023-06-22T02:44:49;15.90;99.90
54126;DHT22;40360;52.992;6.796;2023-06-22T02:47:15;15.90;99.90
54126;DHT22;40360;52.992;6.796;2023-06-22T02:49:41;15.90;99.90
54126;DHT22;40360;52.992;6.796;2023-06-22T02:52:07;15.90;99.90
54126;DHT22;40360;52.992;6.796;2023-06-22T02:54:33;15.80;99.90
54126;DHT22;40360;52.992;6.796;2023-06-22T02:56:59;15.80;99.90
54126;DHT22;40360;52.992;6.796;2023-06-22T02:59:28;15.70;99.90
54126;DHT22;40360;52.992;6.796;2023-06-22T03:01:53;15.70;99.90
54126;DHT22;40360;52.992;6.796;2023-06-22T03:04:19;15.70;99.90
54126;DHT22;40360;52.992;6.796;2023-06-22T03:06:45;15.60;99.90
54126;DHT22;40360;52.992;6.796;2023-06-22T03:09:16;15.60;99.90
54126;DHT22;40360;52.992;6.796;2023-06-22T03:11:42;15.80;99.90
54126;DHT22;40360;52.992;6.796;2023-06-22T03:14:08;15.50;99.90
54126;DHT22;40360;52.992;6.796;2023-06-22T03:16:34;15.60;99.90
54126;DHT22;40360;52.992;6.796;2023-06-22T03:18:59;15.60;99.90
54126;DHT22;40360;52.992;6.796;2023-06-22T03:21:28;15.50;99.90
54126;DHT22;40360;52.992;6.796;2023-06-22T03:23:54;15.50;99.90
54126;DHT22;40360;52.992;6.796;2023-06-22T03:26:19;15.50;99.90
54126;DHT22;40360;52.992;6.796;2023-06-22T03:28:45;15.50;99.90
54126;DHT22;40360;52.992;6.796;2023-06-22T03:31:11;15.60;99.90
54126;DHT22;40360;52.992;6.796;2023-06-22T03:33:37;15.50;99.90
54126;DHT22;40360;52.992;6.796;2023-06-22T03:36:03;15.50;99.90
54126;DHT22;40360;52.992;6.796;2023-06-22T03:38:29;15.50;99.90
54126;DHT22;40360;52.992;6.796;2023-06-22T03:40:54;15.50;99.90
54126;DHT22;40360;52.992;6.796;2023-06-22T03:43:20;15.50;99.90
54126;DHT22;40360;52.992;6.796;2023-06-22T03:45:45;15.60;99.90
54126;DHT22;40360;52.992;6.796;2023-06-22T03:48:12;15.60;99.90
54126;DHT22;40360;52.992;6.796;2023-06-22T03:50:37;15.70;99.90
54126;DHT22;40360;52.992;6.796;2023-06-22T03:53:03;15.60;99.90
54126;DHT22;40360;52.992;6.796;2023-06-22T03:55:29;15.60;99.90
54126;DHT22;40360;52.992;6.796;2023-06-22T03:57:55;15.60;99.90
54126;DHT22;40360;52.992;6.796;2023-06-22T04:00:25;15.60;99.90
54126;DHT22;40360;52.992;6.796;2023-06-22T04:02:51;15.60;99.90
54126;DHT22;40360;52.992;6.796;2023-06-22T04:05:16;15.60;99.90
54126;DHT22;40360;52.992;6.796;2023-06-22T04:07:45;15.60;99.90
54126;DHT22;40360;52.992;6.796;2023-06-22T04:10:10;15.60;99.90
54126;DHT22;40360;52.992;6.796;2023-06-22T04:12:36;15.60;99.90
54126;DHT22;40360;52.992;6.796;2023-06-22T04:15:02;15.60;99.90
54126;DHT22;40360;52.992;6.796;2023-06-22T04:17:27;15.60;99.90
54126;DHT22;40360;52.992;6.796;2023-06-22T04:19:53;15.60;99.90
54126;DHT22;40360;52.992;6.796;2023-06-22T04:22:19;15.60;99.90
54126;DHT22;40360;52.992;6.796;2023-06-22T04:24:44;15.60;99.90
54126;DHT22;40360;52.992;6.796;2023-06-22T04:27:10;15.60;99.90
54126;DHT22;40360;52.992;6.796;2023-06-22T04:29:36;15.70;99.90
54126;DHT22;40360;52.992;6.796;2023-06-22T04:32:02;15.70;99.90
54126;DHT22;40360;52.992;6.796;2023-06-22T04:34:30;15.70;99.90
54126;DHT22;40360;52.992;6.796;2023-06-22T04:36:56;15.70;99.90
54126;DHT22;40360;52.992;6.796;2023-06-22T04:39:22;15.80;99.90
54126;DHT22;40360;52.992;6.796;2023-06-22T04:41:49;15.80;99.90
54126;DHT22;40360;52.992;6.796;2023-06-22T04:44:17;15.80;99.90
54126;DHT22;40360;52.992;6.796;2023-06-22T04:46:57;15.80;99.90
54126;DHT22;40360;52.992;6.796;2023-06-22T04:49:28;15.80;99.90
54126;DHT22;40360;52.992;6.796;2023-06-22T04:52:02;15.90;99.90
54126;DHT22;40360;52.992;6.796;2023-06-22T04:54:28;16.00;99.90
54126;DHT22;40360;52.992;6.796;2023-06-22T04:56:54;16.00;99.90
54126;DHT22;40360;52.992;6.796;2023-06-22T04:59:23;16.10;99.90
54126;DHT22;40360;52.992;6.796;2023-06-22T05:01:57;16.20;99.90
54126;DHT22;40360;52.992;6.796;2023-06-22T05:04:24;16.20;99.90
54126;DHT22;40360;52.992;6.796;2023-06-22T05:06:51;16.30;99.90
54126;DHT22;40360;52.992;6.796;2023-06-22T05:09:17;16.40;99.90
54126;DHT22;40360;52.992;6.796;2023-06-22T05:11:44;16.50;99.90
54126;DHT22;40360;52.992;6.796;2023-06-22T05:14:10;16.60;99.90
54126;DHT22;40360;52.992;6.796;2023-06-22T05:16:36;16.70;99.90
54126;DHT22;40360;52.992;6.796;2023-06-22T05:19:02;16.70;99.90
54126;DHT22;40360;52.992;6.796;2023-06-22T05:21:31;16.80;99.90
54126;DHT22;40360;52.992;6.796;2023-06-22T05:23:57;16.90;99.90
54126;DHT22;40360;52.992;6.796;2023-06-22T05:26:28;16.90;99.90
54126;DHT22;40360;52.992;6.796;2023-06-22T05:28:54;16.40;99.90
54126;DHT22;40360;52.992;6.796;2023-06-22T05:31:20;17.10;99.90
54126;DHT22;40360;52.992;6.796;2023-06-22T05:33:46;17.20;99.90
54126;DHT22;40360;52.992;6.796;2023-06-22T05:36:12;17.40;99.90
54126;DHT22;40360;52.992;6.796;2023-06-22T05:38:38;17.40;99.90
54126;DHT22;40360;52.992;6.796;2023-06-22T05:41:04;17.50;99.90
54126;DHT22;40360;52.992;6.796;2023-06-22T06:02:26;18.40;99.90
54126;DHT22;40360;52.992;6.796;2023-06-22T06:04:52;18.40;99.90
54126;DHT22;40360;52.992;6.796;2023-06-22T06:07:18;18.50;99.90
54126;DHT22;40360;52.992;6.796;2023-06-22T06:09:44;18.60;99.90
54126;DHT22;40360;52.992;6.796;2023-06-22T06:12:10;18.70;99.90
54126;DHT22;40360;52.992;6.796;2023-06-22T06:14:36;18.80;99.90
54126;DHT22;40360;52.992;6.796;2023-06-22T06:17:01;18.80;99.90
54126;DHT22;40360;52.992;6.796;2023-06-22T06:19:27;18.90;99.90
54126;DHT22;40360;52.992;6.796;2023-06-22T06:21:52;18.90;99.90
54126;DHT22;40360;52.992;6.796;2023-06-22T06:24:18;19.00;99.90
54126;DHT22;40360;52.992;6.796;2023-06-22T06:26:44;19.10;99.90
54126;DHT22;40360;52.992;6.796;2023-06-22T06:29:10;19.10;99.90
54126;DHT22;40360;52.992;6.796;2023-06-22T06:31:35;19.20;99.90
54126;DHT22;40360;52.992;6.796;2023-06-22T06:34:01;19.30;99.90
54126;DHT22;40360;52.992;6.796;2023-06-22T06:36:28;19.40;99.90
54126;DHT22;40360;52.992;6.796;2023-06-22T06:38:54;19.50;99.90
54126;DHT22;40360;52.992;6.796;2023-06-22T06:41:19;19.60;99.90
54126;DHT22;40360;52.992;6.796;2023-06-22T06:43:46;19.70;99.90
54126;DHT22;40360;52.992;6.796;2023-06-22T06:46:12;19.80;99.90
54126;DHT22;40360;52.992;6.796;2023-06-22T06:48:37;19.80;99.90
54126;DHT22;40360;52.992;6.796;2023-06-22T06:51:03;19.90;99.90
54126;DHT22;40360;52.992;6.796;2023-06-22T06:53:29;20.00;99.90
54126;DHT22;40360;52.992;6.796;2023-06-22T06:55:55;20.10;99.90
54126;DHT22;40360;52.992;6.796;2023-06-22T06:58:20;20.20;99.90
54126;DHT22;40360;52.992;6.796;2023-06-22T07:00:48;20.30;99.90
54126;DHT22;40360;52.992;6.796;2023-06-22T07:03:14;20.40;99.90
54126;DHT22;40360;52.992;6.796;2023-06-22T07:05:40;20.40;99.90
54126;DHT22;40360;52.992;6.796;2023-06-22T07:08:05;20.60;99.90
54126;DHT22;40360;52.992;6.796;2023-06-22T07:10:31;20.70;99.90
54126;DHT22;40360;52.992;6.796;2023-06-22T07:12:57;20.70;99.90
54126;DHT22;40360;52.992;6.796;2023-06-22T07:15:22;20.80;99.90
54126;DHT22;40360;52.992;6.796;2023-06-22T07:17:48;21.00;99.90
54126;DHT22;40360;52.992;6.796;2023-06-22T07:20:14;21.20;99.90
54126;DHT22;40360;52.992;6.796;2023-06-22T07:22:41;21.20;99.90
54126;DHT22;40360;52.992;6.796;2023-06-22T07:25:08;21.40;99.90
54126;DHT22;40360;52.992;6.796;2023-06-22T07:27:39;21.50;99.90
54126;DHT22;40360;52.992;6.796;2023-06-22T07:30:09;21.50;99.90
54126;DHT22;40360;52.992;6.796;2023-06-22T07:32:35;21.60;99.90
54126;DHT22;40360;52.992;6.796;2023-06-22T07:35:02;21.70;99.90
54126;DHT22;40360;52.992;6.796;2023-06-22T07:37:28;21.80;99.90
54126;DHT22;40360;52.992;6.796;2023-06-22T07:39:55;22.00;99.90
54126;DHT22;40360;52.992;6.796;2023-06-22T07:42:27;22.10;99.90
54126;DHT22;40360;52.992;6.796;2023-06-22T07:44:55;22.20;99.90
54126;DHT22;40360;52.992;6.796;2023-06-22T07:47:21;22.30;99.90
54126;DHT22;40360;52.992;6.796;2023-06-22T07:49:50;22.40;99.90
54126;DHT22;40360;52.992;6.796;2023-06-22T07:52:16;22.50;99.90
54126;DHT22;40360;52.992;6.796;2023-06-22T07:54:42;22.60;99.90
54126;DHT22;40360;52.992;6.796;2023-06-22T07:57:07;22.70;99.90
54126;DHT22;40360;52.992;6.796;2023-06-22T07:59:34;22.80;99.90
54126;DHT22;40360;52.992;6.796;2023-06-22T08:01:59;22.80;99.90
54126;DHT22;40360;52.992;6.796;2023-06-22T08:04:26;22.90;99.90
54126;DHT22;40360;52.992;6.796;2023-06-22T08:06:52;23.00;99.90
54126;DHT22;40360;52.992;6.796;2023-06-22T08:09:19;23.00;99.90
54126;DHT22;40360;52.992;6.796;2023-06-22T08:11:45;23.10;99.90
54126;DHT22;40360;52.992;6.796;2023-06-22T08:14:10;23.20;99.90
54126;DHT22;40360;52.992;6.796;2023-06-22T08:16:36;23.30;99.90
54126;DHT22;40360;52.992;6.796;2023-06-22T08:19:02;23.30;99.90
54126;DHT22;40360;52.992;6.796;2023-06-22T08:21:27;23.40;99.90
54126;DHT22;40360;52.992;6.796;2023-06-22T08:23:53;23.40;99.90
54126;DHT22;40360;52.992;6.796;2023-06-22T08:26:19;23.50;99.90
54126;DHT22;40360;52.992;6.796;2023-06-22T08:28:45;23.50;99.90
54126;DHT22;40360;52.992;6.796;2023-06-22T08:31:11;23.60;99.90
54126;DHT22;40360;52.992;6.796;2023-06-22T08:33:37;23.70;99.90
54126;DHT22;40360;52.992;6.796;2023-06-22T08:36:03;23.80;99.90
54126;DHT22;40360;52.992;6.796;2023-06-22T08:38:31;23.90;99.90
54126;DHT22;40360;52.992;6.796;2023-06-22T08:40:57;24.00;99.90
54126;DHT22;40360;52.992;6.796;2023-06-22T08:43:23;24.10;99.90
54126;DHT22;40360;52.992;6.796;2023-06-22T08:45:48;24.20;99.90
54126;DHT22;40360;52.992;6.796;2023-06-22T08:48:14;24.20;99.90
54126;DHT22;40360;52.992;6.796;2023-06-22T08:50:40;24.30;99.90
54126;DHT22;40360;52.992;6.796;2023-06-22T08:53:06;24.40;99.90
54126;DHT22;40360;52.992;6.796;2023-06-22T08:55:34;24.50;99.90
54126;DHT22;40360;52.992;6.796;2023-06-22T08:58:00;24.60;99.90
54126;DHT22;40360;52.992;6.796;2023-06-22T09:00:26;24.60;99.90
54126;DHT22;40360;52.992;6.796;2023-06-22T09:02:55;24.80;99.90
54126;DHT22;40360;52.992;6.796;2023-06-22T09:05:24;24.80;99.90
54126;DHT22;40360;52.992;6.796;2023-06-22T09:07:53;24.80;99.90
54126;DHT22;40360;52.992;6.796;2023-06-22T09:10:22;24.80;99.90
54126;DHT22;40360;52.992;6.796;2023-06-22T09:12:47;24.90;99.90
54126;DHT22;40360;52.992;6.796;2023-06-22T09:15:13;25.00;99.90
54126;DHT22;40360;52.992;6.796;2023-06-22T09:17:40;25.10;99.90
54126;DHT22;40360;52.992;6.796;2023-06-22T09:20:07;25.30;99.90
54126;DHT22;40360;52.992;6.796;2023-06-22T09:22:36;25.40;99.90
54126;DHT22;40360;52.992;6.796;2023-06-22T09:25:02;25.50;99.90
54126;DHT22;40360;52.992;6.796;2023-06-22T09:27:29;25.70;99.90
54126;DHT22;40360;52.992;6.796;2023-06-22T09:29:54;25.80;99.90
54126;DHT22;40360;52.992;6.796;2023-06-22T09:32:20;25.90;99.90
54126;DHT22;40360;52.992;6.796;2023-06-22T09:34:46;26.00;99.90
54126;DHT22;40360;52.992;6.796;2023-06-22T09:37:11;26.10;99.90
54126;DHT22;40360;52.992;6.796;2023-06-22T09:39:37;26.10;99.90
54126;DHT22;40360;52.992;6.796;2023-06-22T09:42:03;26.20;99.90
54126;DHT22;40360;52.992;6.796;2023-06-22T09:44:30;26.20;99.90
54126;DHT22;40360;52.992;6.796;2023-06-22T09:46:56;26.30;99.90
54126;DHT22;40360;52.992;6.796;2023-06-22T09:49:22;26.40;99.90
54126;DHT22;40360;52.992;6.796;2023-06-22T09:51:48;26.40;99.90
54126;DHT22;40360;52.992;6.796;2023-06-22T09:54:16;26.50;99.90
54126;DHT22;40360;52.992;6.796;2023-06-22T09:56:42;26.50;99.90
54126;DHT22;40360;52.992;6.796;2023-06-22T09:59:07;26.60;99.90
54126;DHT22;40360;52.992;6.796;2023-06-22T10:01:33;26.70;99.90
54126;DHT22;40360;52.992;6.796;2023-06-22T10:03:59;26.80;99.90
54126;DHT22;40360;52.992;6.796;2023-06-22T10:06:25;26.80;99.90
54126;DHT22;40360;52.992;6.796;2023-06-22T10:08:51;26.80;99.90
54126;DHT22;40360;52.992;6.796;2023-06-22T10:11:17;26.80;99.90
54126;DHT22;40360;52.992;6.796;2023-06-22T10:13:43;27.00;99.90
54126;DHT22;40360;52.992;6.796;2023-06-22T10:16:08;27.10;99.90
54126;DHT22;40360;52.992;6.796;2023-06-22T10:18:34;27.20;99.90
54126;DHT22;40360;52.992;6.796;2023-06-22T10:21:00;27.30;99.90
54126;DHT22;40360;52.992;6.796;2023-06-22T10:23:26;27.40;99.90
54126;DHT22;40360;52.992;6.796;2023-06-22T10:25:51;27.40;99.90
54126;DHT22;40360;52.992;6.796;2023-06-22T10:28:17;27.50;99.90
54126;DHT22;40360;52.992;6.796;2023-06-22T10:30:43;27.60;99.90
54126;DHT22;40360;52.992;6.796;2023-06-22T10:33:10;27.70;99.90
54126;DHT22;40360;52.992;6.796;2023-06-22T10:35:37;27.70;99.90
54126;DHT22;40360;52.992;6.796;2023-06-22T10:38:04;27.80;99.90
54126;DHT22;40360;52.992;6.796;2023-06-22T10:40:30;27.90;99.90
54126;DHT22;40360;52.992;6.796;2023-06-22T10:42:55;28.00;99.90
54126;DHT22;40360;52.992;6.796;2023-06-22T10:45:21;27.90;99.90
54126;DHT22;40360;52.992;6.796;2023-06-22T10:47:47;27.80;99.90
54126;DHT22;40360;52.992;6.796;2023-06-22T10:50:13;27.80;99.90
54126;DHT22;40360;52.992;6.796;2023-06-22T10:52:39;27.80;99.90
54126;DHT22;40360;52.992;6.796;2023-06-22T10:55:06;27.90;99.90
54126;DHT22;40360;52.992;6.796;2023-06-22T10:57:32;27.90;99.90
54126;DHT22;40360;52.992;6.796;2023-06-22T10:59:57;28.10;99.90
54126;DHT22;40360;52.992;6.796;2023-06-22T11:02:23;28.20;99.90
54126;DHT22;40360;52.992;6.796;2023-06-22T11:04:50;28.30;99.90
54126;DHT22;40360;52.992;6.796;2023-06-22T11:07:16;28.30;99.90
54126;DHT22;40360;52.992;6.796;2023-06-22T11:09:43;28.30;99.90
54126;DHT22;40360;52.992;6.796;2023-06-22T11:12:09;28.30;99.90
54126;DHT22;40360;52.992;6.796;2023-06-22T11:14:35;28.20;99.90
54126;DHT22;40360;52.992;6.796;2023-06-22T11:17:00;28.20;99.90
54126;DHT22;40360;52.992;6.796;2023-06-22T11:19:26;28.20;99.90
54126;DHT22;40360;52.992;6.796;2023-06-22T11:21:52;28.20;99.90
54126;DHT22;40360;52.992;6.796;2023-06-22T11:24:18;28.20;99.90
54126;DHT22;40360;52.992;6.796;2023-06-22T11:26:44;28.20;99.90
54126;DHT22;40360;52.992;6.796;2023-06-22T11:29:09;28.20;99.90
54126;DHT22;40360;52.992;6.796;2023-06-22T11:31:35;28.20;99.90
54126;DHT22;40360;52.992;6.796;2023-06-22T11:34:01;28.30;99.90
54126;DHT22;40360;52.992;6.796;2023-06-22T11:36:28;28.20;99.90
54126;DHT22;40360;52.992;6.796;2023-06-22T11:38:54;28.20;99.90
54126;DHT22;40360;52.992;6.796;2023-06-22T11:41:20;28.10;99.90
54126;DHT22;40360;52.992;6.796;2023-06-22T11:43:45;28.10;99.90
54126;DHT22;40360;52.992;6.796;2023-06-22T11:46:11;28.10;99.90
54126;DHT22;40360;52.992;6.796;2023-06-22T11:48:37;28.10;99.90
54126;DHT22;40360;52.992;6.796;2023-06-22T11:51:03;28.10;99.90
54126;DHT22;40360;52.992;6.796;2023-06-22T11:53:29;28.00;99.90
54126;DHT22;40360;52.992;6.796;2023-06-22T11:55:55;28.00;99.90
54126;DHT22;40360;52.992;6.796;2023-06-22T11:58:21;28.00;99.90
54126;DHT22;40360;52.992;6.796;2023-06-22T12:00:48;28.00;99.90
54126;DHT22;40360;52.992;6.796;2023-06-22T12:03:13;28.00;99.90
54126;DHT22;40360;52.992;6.796;2023-06-22T12:05:40;28.00;99.90
54126;DHT22;40360;52.992;6.796;2023-06-22T12:08:06;27.90;99.90
54126;DHT22;40360;52.992;6.796;2023-06-22T12:10:32;27.80;99.90
54126;DHT22;40360;52.992;6.796;2023-06-22T12:12:58;27.80;99.90
54126;DHT22;40360;52.992;6.796;2023-06-22T12:15:26;27.70;99.90
54126;DHT22;40360;52.992;6.796;2023-06-22T12:17:52;27.70;99.90
54126;DHT22;40360;52.992;6.796;2023-06-22T12:20:18;27.70;99.90
54126;DHT22;40360;52.992;6.796;2023-06-22T12:22:44;27.60;99.90
54126;DHT22;40360;52.992;6.796;2023-06-22T12:25:10;27.60;99.90
54126;DHT22;40360;52.992;6.796;2023-06-22T12:27:36;27.60;99.90
54126;DHT22;40360;52.992;6.796;2023-06-22T12:30:03;27.50;99.90
54126;DHT22;40360;52.992;6.796;2023-06-22T12:32:29;27.30;99.90
54126;DHT22;40360;52.992;6.796;2023-06-22T12:34:55;27.30;99.90
54126;DHT22;40360;52.992;6.796;2023-06-22T12:37:21;27.20;99.90
54126;DHT22;40360;52.992;6.796;2023-06-22T12:39:46;27.10;99.90
54126;DHT22;40360;52.992;6.796;2023-06-22T12:42:12;27.10;99.90
54126;DHT22;40360;52.992;6.796;2023-06-22T12:44:39;27.00;99.90
54126;DHT22;40360;52.992;6.796;2023-06-22T12:47:08;26.90;99.90
54126;DHT22;40360;52.992;6.796;2023-06-22T12:49:35;26.90;99.90
54126;DHT22;40360;52.992;6.796;2023-06-22T12:52:01;26.80;99.90
54126;DHT22;40360;52.992;6.796;2023-06-22T12:54:27;26.70;99.90
54126;DHT22;40360;52.992;6.796;2023-06-22T12:56:53;26.60;99.90
54126;DHT22;40360;52.992;6.796;2023-06-22T12:59:19;26.50;99.90
54126;DHT22;40360;52.992;6.796;2023-06-22T13:01:45;26.40;99.90
54126;DHT22;40360;52.992;6.796;2023-06-22T13:04:11;26.30;99.90
54126;DHT22;40360;52.992;6.796;2023-06-22T13:06:41;26.20;99.90
54126;DHT22;40360;52.992;6.796;2023-06-22T13:09:07;26.10;99.90
54126;DHT22;40360;52.992;6.796;2023-06-22T13:11:33;26.00;99.90
54126;DHT22;40360;52.992;6.796;2023-06-22T13:13:59;26.00;99.90
54126;DHT22;40360;52.992;6.796;2023-06-22T13:16:25;26.00;99.90
54126;DHT22;40360;52.992;6.796;2023-06-22T13:18:51;26.00;99.90
54126;DHT22;40360;52.992;6.796;2023-06-22T13:21:16;25.90;99.90
54126;DHT22;40360;52.992;6.796;2023-06-22T13:23:42;25.90;99.90
54126;DHT22;40360;52.992;6.796;2023-06-22T13:26:08;25.90;99.90
54126;DHT22;40360;52.992;6.796;2023-06-22T13:28:42;25.80;99.90
54126;DHT22;40360;52.992;6.796;2023-06-22T13:31:08;25.80;99.90
54126;DHT22;40360;52.992;6.796;2023-06-22T13:33:34;25.70;99.90
54126;DHT22;40360;52.992;6.796;2023-06-22T13:35:59;25.70;99.90
54126;DHT22;40360;52.992;6.796;2023-06-22T13:38:25;25.60;99.90
54126;DHT22;40360;52.992;6.796;2023-06-22T13:40:51;25.60;99.90
54126;DHT22;40360;52.992;6.796;2023-06-22T13:43:17;25.60;99.90
54126;DHT22;40360;52.992;6.796;2023-06-22T13:45:43;25.60;99.90
54126;DHT22;40360;52.992;6.796;2023-06-22T13:48:09;25.50;99.90
54126;DHT22;40360;52.992;6.796;2023-06-22T13:50:35;25.50;99.90
54126;DHT22;40360;52.992;6.796;2023-06-22T13:53:01;25.40;99.90
54126;DHT22;40360;52.992;6.796;2023-06-22T13:55:26;25.30;99.90
54126;DHT22;40360;52.992;6.796;2023-06-22T13:57:53;25.20;99.90
54126;DHT22;40360;52.992;6.796;2023-06-22T14:00:19;25.10;99.90
54126;DHT22;40360;52.992;6.796;2023-06-22T14:02:45;25.00;99.90
54126;DHT22;40360;52.992;6.796;2023-06-22T14:05:11;25.00;99.90
54126;DHT22;40360;52.992;6.796;2023-06-22T14:07:37;25.00;99.90
54126;DHT22;40360;52.992;6.796;2023-06-22T14:10:03;24.90;99.90
54126;DHT22;40360;52.992;6.796;2023-06-22T14:12:29;24.90;99.90
54126;DHT22;40360;52.992;6.796;2023-06-22T14:14:55;24.80;99.90
54126;DHT22;40360;52.992;6.796;2023-06-22T14:17:21;24.80;99.90
54126;DHT22;40360;52.992;6.796;2023-06-22T14:19:50;24.80;99.90
54126;DHT22;40360;52.992;6.796;2023-06-22T14:22:18;24.70;99.90
54126;DHT22;40360;52.992;6.796;2023-06-22T14:24:45;24.60;99.90
54126;DHT22;40360;52.992;6.796;2023-06-22T14:27:10;24.60;99.90
54126;DHT22;40360;52.992;6.796;2023-06-22T14:29:36;24.50;99.90
54126;DHT22;40360;52.992;6.796;2023-06-22T14:32:02;24.50;99.90
54126;DHT22;40360;52.992;6.796;2023-06-22T14:34:28;24.40;99.90
54126;DHT22;40360;52.992;6.796;2023-06-22T14:36:54;24.40;99.90
54126;DHT22;40360;52.992;6.796;2023-06-22T14:39:19;24.20;99.90
54126;DHT22;40360;52.992;6.796;2023-06-22T14:41:46;24.10;99.90
54126;DHT22;40360;52.992;6.796;2023-06-22T14:44:12;24.00;99.90
54126;DHT22;40360;52.992;6.796;2023-06-22T14:46:37;23.90;99.90
54126;DHT22;40360;52.992;6.796;2023-06-22T14:49:03;23.70;99.90
54126;DHT22;40360;52.992;6.796;2023-06-22T14:51:29;23.60;99.90
54126;DHT22;40360;52.992;6.796;2023-06-22T14:53:55;23.60;99.90
54126;DHT22;40360;52.992;6.796;2023-06-22T14:56:20;23.50;99.90
54126;DHT22;40360;52.992;6.796;2023-06-22T14:58:46;23.40;99.90
54126;DHT22;40360;52.992;6.796;2023-06-22T15:01:12;23.30;99.90
54126;DHT22;40360;52.992;6.796;2023-06-22T15:03:38;23.20;99.90
54126;DHT22;40360;52.992;6.796;2023-06-22T15:06:04;23.20;99.90
54126;DHT22;40360;52.992;6.796;2023-06-22T15:08:30;23.10;99.90
54126;DHT22;40360;52.992;6.796;2023-06-22T15:10:59;23.10;99.90
54126;DHT22;40360;52.992;6.796;2023-06-22T15:13:27;23.00;99.90
54126;DHT22;40360;52.992;6.796;2023-06-22T15:15:53;23.00;99.90
54126;DHT22;40360;52.992;6.796;2023-06-22T15:18:19;22.90;99.90
54126;DHT22;40360;52.992;6.796;2023-06-22T15:20:44;22.90;99.90
54126;DHT22;40360;52.992;6.796;2023-06-22T15:23:12;22.70;99.90
54126;DHT22;40360;52.992;6.796;2023-06-22T15:25:37;22.60;99.90
54126;DHT22;40360;52.992;6.796;2023-06-22T15:28:03;22.50;99.90
54126;DHT22;40360;52.992;6.796;2023-06-22T15:30:29;22.50;99.90
54126;DHT22;40360;52.992;6.796;2023-06-22T15:32:56;22.40;99.90
54126;DHT22;40360;52.992;6.796;2023-06-22T15:35:22;22.30;99.90
54126;DHT22;40360;52.992;6.796;2023-06-22T15:37:47;22.20;99.90
54126;DHT22;40360;52.992;6.796;2023-06-22T15:40:15;22.10;99.90
54126;DHT22;40360;52.992;6.796;2023-06-22T15:42:40;22.10;99.90
54126;DHT22;40360;52.992;6.796;2023-06-22T15:45:06;21.90;99.90
54126;DHT22;40360;52.992;6.796;2023-06-22T15:47:32;21.90;99.90
54126;DHT22;40360;52.992;6.796;2023-06-22T15:49:58;21.80;99.90
54126;DHT22;40360;52.992;6.796;2023-06-22T15:52:23;21.70;99.90